Claremont, New Hampshire
Current Conditions -  °F | °C
As of 7:31 PM on Monday 24 Nov 2014 (Local Time) from KVSF Reporting Station
Scattered Clouds Scattered Clouds  
Wind Chill: 52°   Ceiling: Unl
Heat Index: 52°   Visibility: 10mi
Dew Point: 50°   Wind: 5mph
Humidity: 93%   Direction: 210°SSW
Pressure: 29.55"   Gusts: NA
Location:  43.37°N, 72.34°W
Report Text: KVSF 250031Z AUTO 21004KT 10SM SCT018 11/10 A2955 RMK AO2 T01110100
Loading
Personal Weather Stations






























Interactive Weather Map New forecast layout! Learn more

10-Day Weather Forecast

Advertisements
Track Severe Weather on mobile